sensor_id;sensor_type;location;lat;lon;timestamp;temperature;humidity
17066;DHT22;23120;52.336;21.182;2023-03-23T00:02:23;8.50;98.00
17066;DHT22;23120;52.336;21.182;2023-03-23T00:04:50;8.50;98.20
17066;DHT22;23120;52.336;21.182;2023-03-23T00:07:18;8.50;98.20
17066;DHT22;23120;52.336;21.182;2023-03-23T00:09:48;8.50;98.10
17066;DHT22;23120;52.336;21.182;2023-03-23T00:12:20;8.50;98.20
17066;DHT22;23120;52.336;21.182;2023-03-23T00:14:54;8.50;98.20
17066;DHT22;23120;52.336;21.182;2023-03-23T00:17:21;8.50;98.40
17066;DHT22;23120;52.336;21.182;2023-03-23T00:19:49;8.50;98.20
17066;DHT22;23120;52.336;21.182;2023-03-23T00:22:18;8.40;98.30
17066;DHT22;23120;52.336;21.182;2023-03-23T00:24:52;8.40;98.60
17066;DHT22;23120;52.336;21.182;2023-03-23T00:27:19;8.40;98.50
17066;DHT22;23120;52.336;21.182;2023-03-23T00:29:48;8.40;98.20
17066;DHT22;23120;52.336;21.182;2023-03-23T00:32:19;8.40;98.50
17066;DHT22;23120;52.336;21.182;2023-03-23T00:34:52;8.40;98.40
17066;DHT22;23120;52.336;21.182;2023-03-23T00:37:22;8.40;98.30
17066;DHT22;23120;52.336;21.182;2023-03-23T00:39:52;8.40;98.50
17066;DHT22;23120;52.336;21.182;2023-03-23T00:42:23;8.30;98.40
17066;DHT22;23120;52.336;21.182;2023-03-23T00:44:50;8.30;98.30
17066;DHT22;23120;52.336;21.182;2023-03-23T00:47:19;8.30;98.30
17066;DHT22;23120;52.336;21.182;2023-03-23T00:49:46;8.30;98.50
17066;DHT22;23120;52.336;21.182;2023-03-23T00:52:15;8.30;98.30
17066;DHT22;23120;52.336;21.182;2023-03-23T00:54:42;8.30;98.40
17066;DHT22;23120;52.336;21.182;2023-03-23T00:57:11;8.30;98.70
17066;DHT22;23120;52.336;21.182;2023-03-23T00:59:38;8.30;98.60
17066;DHT22;23120;52.336;21.182;2023-03-23T01:02:07;8.20;98.40
17066;DHT22;23120;52.336;21.182;2023-03-23T01:04:34;8.30;98.60
17066;DHT22;23120;52.336;21.182;2023-03-23T01:07:05;8.30;98.60
17066;DHT22;23120;52.336;21.182;2023-03-23T01:09:33;8.20;99.00
17066;DHT22;23120;52.336;21.182;2023-03-23T01:12:04;8.20;99.10
17066;DHT22;23120;52.336;21.182;2023-03-23T01:14:33;8.30;98.80
17066;DHT22;23120;52.336;21.182;2023-03-23T01:17:06;8.30;98.90
17066;DHT22;23120;52.336;21.182;2023-03-23T01:19:34;8.30;98.80
17066;DHT22;23120;52.336;21.182;2023-03-23T01:22:04;8.30;98.80
17066;DHT22;23120;52.336;21.182;2023-03-23T01:24:31;8.20;98.80
17066;DHT22;23120;52.336;21.182;2023-03-23T01:26:59;8.30;98.70
17066;DHT22;23120;52.336;21.182;2023-03-23T01:29:33;8.30;98.80
17066;DHT22;23120;52.336;21.182;2023-03-23T01:32:00;8.30;98.80
17066;DHT22;23120;52.336;21.182;2023-03-23T01:34:27;8.30;98.80
17066;DHT22;23120;52.336;21.182;2023-03-23T01:36:54;8.30;99.20
17066;DHT22;23120;52.336;21.182;2023-03-23T01:39:23;8.30;99.00
17066;DHT22;23120;52.336;21.182;2023-03-23T01:41:51;8.30;98.90
17066;DHT22;23120;52.336;21.182;2023-03-23T01:47:42;8.30;99.00
17066;DHT22;23120;52.336;21.182;2023-03-23T01:50:09;8.30;99.20
17066;DHT22;23120;52.336;21.182;2023-03-23T01:52:36;8.30;99.00
17066;DHT22;23120;52.336;21.182;2023-03-23T01:55:04;8.40;99.00
17066;DHT22;23120;52.336;21.182;2023-03-23T01:57:32;8.30;99.10
17066;DHT22;23120;52.336;21.182;2023-03-23T02:00:06;8.30;98.90
17066;DHT22;23120;52.336;21.182;2023-03-23T02:02:42;8.40;99.00
17066;DHT22;23120;52.336;21.182;2023-03-23T02:05:13;8.40;99.20
17066;DHT22;23120;52.336;21.182;2023-03-23T02:07:43;8.30;99.20
17066;DHT22;23120;52.336;21.182;2023-03-23T02:10:10;8.30;99.00
17066;DHT22;23120;52.336;21.182;2023-03-23T02:12:39;8.30;99.40
17066;DHT22;23120;52.336;21.182;2023-03-23T02:15:07;8.30;99.20
17066;DHT22;23120;52.336;21.182;2023-03-23T02:17:40;8.30;99.00
17066;DHT22;23120;52.336;21.182;2023-03-23T02:20:21;8.30;99.40
17066;DHT22;23120;52.336;21.182;2023-03-23T02:23:17;8.30;99.10
17066;DHT22;23120;52.336;21.182;2023-03-23T02:25:58;8.30;99.60
17066;DHT22;23120;52.336;21.182;2023-03-23T02:28:48;8.30;99.40
17066;DHT22;23120;52.336;21.182;2023-03-23T02:31:43;8.30;99.20
17066;DHT22;23120;52.336;21.182;2023-03-23T02:34:15;8.30;99.20
17066;DHT22;23120;52.336;21.182;2023-03-23T02:36:46;8.30;99.10
17066;DHT22;23120;52.336;21.182;2023-03-23T02:39:19;8.20;99.10
17066;DHT22;23120;52.336;21.182;2023-03-23T02:41:50;8.20;99.30
17066;DHT22;23120;52.336;21.182;2023-03-23T02:44:19;8.20;99.10
17066;DHT22;23120;52.336;21.182;2023-03-23T02:46:46;8.20;99.20
17066;DHT22;23120;52.336;21.182;2023-03-23T02:49:17;8.20;99.30
17066;DHT22;23120;52.336;21.182;2023-03-23T02:51:46;8.20;99.30
17066;DHT22;23120;52.336;21.182;2023-03-23T02:54:16;8.20;99.30
17066;DHT22;23120;52.336;21.182;2023-03-23T02:56:45;8.20;99.30
17066;DHT22;23120;52.336;21.182;2023-03-23T02:59:20;8.20;99.40
17066;DHT22;23120;52.336;21.182;2023-03-23T03:01:59;8.20;99.30
17066;DHT22;23120;52.336;21.182;2023-03-23T03:04:30;8.10;99.80
17066;DHT22;23120;52.336;21.182;2023-03-23T03:07:17;8.20;99.60
17066;DHT22;23120;52.336;21.182;2023-03-23T03:09:49;8.20;99.70
17066;DHT22;23120;52.336;21.182;2023-03-23T03:12:24;8.20;99.80
17066;DHT22;23120;52.336;21.182;2023-03-23T03:15:03;8.20;99.60
17066;DHT22;23120;52.336;21.182;2023-03-23T03:17:34;8.20;99.60
17066;DHT22;23120;52.336;21.182;2023-03-23T03:20:08;8.10;99.70
17066;DHT22;23120;52.336;21.182;2023-03-23T03:22:39;8.20;99.90
17066;DHT22;23120;52.336;21.182;2023-03-23T03:25:10;8.20;99.70
17066;DHT22;23120;52.336;21.182;2023-03-23T03:27:40;8.20;99.80
17066;DHT22;23120;52.336;21.182;2023-03-23T03:30:18;8.10;99.70
17066;DHT22;23120;52.336;21.182;2023-03-23T03:32:49;8.10;99.60
17066;DHT22;23120;52.336;21.182;2023-03-23T03:35:20;8.10;99.50
17066;DHT22;23120;52.336;21.182;2023-03-23T03:37:50;8.10;99.60
17066;DHT22;23120;52.336;21.182;2023-03-23T03:40:20;8.10;99.60
17066;DHT22;23120;52.336;21.182;2023-03-23T03:42:49;8.10;99.70
17066;DHT22;23120;52.336;21.182;2023-03-23T03:45:25;8.10;99.90
17066;DHT22;23120;52.336;21.182;2023-03-23T03:47:52;8.10;99.70
17066;DHT22;23120;52.336;21.182;2023-03-23T03:50:20;8.10;99.70
17066;DHT22;23120;52.336;21.182;2023-03-23T03:52:49;8.00;99.60
17066;DHT22;23120;52.336;21.182;2023-03-23T03:55:16;8.00;99.60
17066;DHT22;23120;52.336;21.182;2023-03-23T03:57:46;8.00;99.70
17066;DHT22;23120;52.336;21.182;2023-03-23T04:00:35;7.90;99.70
17066;DHT22;23120;52.336;21.182;2023-03-23T04:03:02;7.90;99.80
17066;DHT22;23120;52.336;21.182;2023-03-23T04:05:43;7.90;99.80
17066;DHT22;23120;52.336;21.182;2023-03-23T04:08:11;7.80;99.90
17066;DHT22;23120;52.336;21.182;2023-03-23T04:10:42;7.80;99.80
17066;DHT22;23120;52.336;21.182;2023-03-23T04:13:09;7.80;99.90
17066;DHT22;23120;52.336;21.182;2023-03-23T04:15:52;7.70;99.80
17066;DHT22;23120;52.336;21.182;2023-03-23T04:18:19;7.70;99.90
17066;DHT22;23120;52.336;21.182;2023-03-23T04:20:49;7.70;99.90
17066;DHT22;23120;52.336;21.182;2023-03-23T04:23:20;7.60;99.90
17066;DHT22;23120;52.336;21.182;2023-03-23T04:25:49;7.60;99.90
17066;DHT22;23120;52.336;21.182;2023-03-23T04:28:17;7.60;99.90
17066;DHT22;23120;52.336;21.182;2023-03-23T04:31:08;7.60;99.90
17066;DHT22;23120;52.336;21.182;2023-03-23T04:33:40;7.50;99.90
17066;DHT22;23120;52.336;21.182;2023-03-23T04:36:10;7.50;99.80
17066;DHT22;23120;52.336;21.182;2023-03-23T04:38:50;7.50;99.80
17066;DHT22;23120;52.336;21.182;2023-03-23T04:41:23;7.50;99.90
17066;DHT22;23120;52.336;21.182;2023-03-23T04:44:01;7.40;99.80
17066;DHT22;23120;52.336;21.182;2023-03-23T04:46:37;7.40;99.90
17066;DHT22;23120;52.336;21.182;2023-03-23T04:49:11;7.40;99.80
17066;DHT22;23120;52.336;21.182;2023-03-23T04:51:44;7.40;99.90
17066;DHT22;23120;52.336;21.182;2023-03-23T04:54:22;7.40;99.90
17066;DHT22;23120;52.336;21.182;2023-03-23T04:56:53;7.30;99.90
17066;DHT22;23120;52.336;21.182;2023-03-23T04:59:21;7.30;99.90
17066;DHT22;23120;52.336;21.182;2023-03-23T05:02:08;7.30;99.90
17066;DHT22;23120;52.336;21.182;2023-03-23T05:04:35;7.30;99.90
17066;DHT22;23120;52.336;21.182;2023-03-23T05:07:11;7.30;99.90
17066;DHT22;23120;52.336;21.182;2023-03-23T05:09:46;7.30;99.90
17066;DHT22;23120;52.336;21.182;2023-03-23T05:12:15;7.30;99.90
17066;DHT22;23120;52.336;21.182;2023-03-23T05:14:53;7.30;99.90
17066;DHT22;23120;52.336;21.182;2023-03-23T05:17:24;7.30;99.90
17066;DHT22;23120;52.336;21.182;2023-03-23T05:19:54;7.30;99.90
17066;DHT22;23120;52.336;21.182;2023-03-23T05:22:37;7.30;99.90
17066;DHT22;23120;52.336;21.182;2023-03-23T05:25:10;7.30;99.90
17066;DHT22;23120;52.336;21.182;2023-03-23T05:27:42;7.40;99.90
17066;DHT22;23120;52.336;21.182;2023-03-23T05:30:27;7.40;99.90
17066;DHT22;23120;52.336;21.182;2023-03-23T05:32:58;7.40;99.90
17066;DHT22;23120;52.336;21.182;2023-03-23T05:35:48;7.40;99.90
17066;DHT22;23120;52.336;21.182;2023-03-23T05:38:20;7.40;99.90
17066;DHT22;23120;52.336;21.182;2023-03-23T05:40:49;7.50;99.90
17066;DHT22;23120;52.336;21.182;2023-03-23T05:43:22;7.50;99.90
17066;DHT22;23120;52.336;21.182;2023-03-23T05:46:12;7.60;99.90
17066;DHT22;23120;52.336;21.182;2023-03-23T05:48:40;7.70;99.90
17066;DHT22;23120;52.336;21.182;2023-03-23T05:51:12;7.70;99.90
17066;DHT22;23120;52.336;21.182;2023-03-23T05:53:44;7.80;99.90
17066;DHT22;23120;52.336;21.182;2023-03-23T05:56:14;7.80;99.90
17066;DHT22;23120;52.336;21.182;2023-03-23T05:58:54;7.80;99.90
17066;DHT22;23120;52.336;21.182;2023-03-23T06:01:23;7.90;99.90
17066;DHT22;23120;52.336;21.182;2023-03-23T06:03:51;7.90;99.90
17066;DHT22;23120;52.336;21.182;2023-03-23T06:06:24;8.00;99.90
17066;DHT22;23120;52.336;21.182;2023-03-23T06:09:04;8.10;99.90
17066;DHT22;23120;52.336;21.182;2023-03-23T06:11:52;8.10;99.90
17066;DHT22;23120;52.336;21.182;2023-03-23T06:14:28;8.20;99.90
17066;DHT22;23120;52.336;21.182;2023-03-23T06:16:56;8.30;99.90
17066;DHT22;23120;52.336;21.182;2023-03-23T06:19:23;8.30;99.90
17066;DHT22;23120;52.336;21.182;2023-03-23T06:22:01;8.40;99.90
17066;DHT22;23120;52.336;21.182;2023-03-23T06:24:50;8.50;99.90
17066;DHT22;23120;52.336;21.182;2023-03-23T06:27:25;8.50;99.90
17066;DHT22;23120;52.336;21.182;2023-03-23T06:29:54;8.60;99.90
17066;DHT22;23120;52.336;21.182;2023-03-23T06:32:24;8.70;99.90
17066;DHT22;23120;52.336;21.182;2023-03-23T06:34:51;8.70;99.90
17066;DHT22;23120;52.336;21.182;2023-03-23T06:37:32;8.80;99.90
17066;DHT22;23120;52.336;21.182;2023-03-23T06:40:16;8.80;99.90
17066;DHT22;23120;52.336;21.182;2023-03-23T06:42:57;8.90;99.90
17066;DHT22;23120;52.336;21.182;2023-03-23T06:45:44;8.90;99.90
17066;DHT22;23120;52.336;21.182;2023-03-23T06:48:31;9.00;99.90
17066;DHT22;23120;52.336;21.182;2023-03-23T06:50:59;9.10;99.90
17066;DHT22;23120;52.336;21.182;2023-03-23T06:53:28;9.10;99.90
17066;DHT22;23120;52.336;21.182;2023-03-23T06:55:58;9.20;99.90
17066;DHT22;23120;52.336;21.182;2023-03-23T06:58:26;9.20;99.90
17066;DHT22;23120;52.336;21.182;2023-03-23T07:00:54;9.30;99.90
17066;DHT22;23120;52.336;21.182;2023-03-23T07:03:22;9.40;99.90
17066;DHT22;23120;52.336;21.182;2023-03-23T07:05:49;9.40;99.90
17066;DHT22;23120;52.336;21.182;2023-03-23T07:08:19;9.50;99.90
17066;DHT22;23120;52.336;21.182;2023-03-23T07:10:50;9.50;99.90
17066;DHT22;23120;52.336;21.182;2023-03-23T07:13:23;9.60;99.90
17066;DHT22;23120;52.336;21.182;2023-03-23T07:15:54;9.60;99.90
17066;DHT22;23120;52.336;21.182;2023-03-23T07:18:21;9.70;99.90
17066;DHT22;23120;52.336;21.182;2023-03-23T07:33:43;9.90;99.90
17066;DHT22;23120;52.336;21.182;2023-03-23T07:36:36;10.50;99.90
17066;DHT22;23120;52.336;21.182;2023-03-23T07:39:06;10.60;99.90
17066;DHT22;23120;52.336;21.182;2023-03-23T07:41:46;10.70;99.80
17066;DHT22;23120;52.336;21.182;2023-03-23T07:44:31;10.80;99.50
17066;DHT22;23120;52.336;21.182;2023-03-23T07:47:05;11.00;99.40
17066;DHT22;23120;52.336;21.182;2023-03-23T07:49:38;11.00;99.20
17066;DHT22;23120;52.336;21.182;2023-03-23T07:52:23;11.10;99.20
17066;DHT22;23120;52.336;21.182;2023-03-23T07:54:51;11.30;99.10
17066;DHT22;23120;52.336;21.182;2023-03-23T07:57:28;11.40;98.90
17066;DHT22;23120;52.336;21.182;2023-03-23T07:59:56;11.50;98.70
17066;DHT22;23120;52.336;21.182;2023-03-23T08:02:24;11.60;98.60
17066;DHT22;23120;52.336;21.182;2023-03-23T08:05:13;11.70;98.50
17066;DHT22;23120;52.336;21.182;2023-03-23T08:07:53;11.90;98.40
17066;DHT22;23120;52.336;21.182;2023-03-23T08:10:32;12.00;98.20
17066;DHT22;23120;52.336;21.182;2023-03-23T08:13:08;12.10;97.80
17066;DHT22;23120;52.336;21.182;2023-03-23T08:15:52;12.20;97.60
17066;DHT22;23120;52.336;21.182;2023-03-23T08:18:32;12.30;97.50
17066;DHT22;23120;52.336;21.182;2023-03-23T08:21:21;12.40;97.20
17066;DHT22;23120;52.336;21.182;2023-03-23T08:24:05;12.50;97.00
17066;DHT22;23120;52.336;21.182;2023-03-23T08:26:42;12.60;97.00
17066;DHT22;23120;52.336;21.182;2023-03-23T08:29:24;12.80;97.00
17066;DHT22;23120;52.336;21.182;2023-03-23T08:32:05;13.00;96.40
17066;DHT22;23120;52.336;21.182;2023-03-23T08:34:52;13.20;96.20
17066;DHT22;23120;52.336;21.182;2023-03-23T08:37:34;13.40;96.00
17066;DHT22;23120;52.336;21.182;2023-03-23T08:40:24;13.50;95.90
17066;DHT22;23120;52.336;21.182;2023-03-23T08:43:02;13.80;95.40
17066;DHT22;23120;52.336;21.182;2023-03-23T08:45:42;13.90;94.70
17066;DHT22;23120;52.336;21.182;2023-03-23T08:48:21;14.10;93.70
17066;DHT22;23120;52.336;21.182;2023-03-23T08:51:07;14.20;93.60
17066;DHT22;23120;52.336;21.182;2023-03-23T08:53:49;14.40;93.00
17066;DHT22;23120;52.336;21.182;2023-03-23T08:56:38;14.60;90.80
17066;DHT22;23120;52.336;21.182;2023-03-23T08:59:22;14.80;89.10
17066;DHT22;23120;52.336;21.182;2023-03-23T09:02:02;15.00;89.90
17066;DHT22;23120;52.336;21.182;2023-03-23T09:04:42;15.10;88.40
17066;DHT22;23120;52.336;21.182;2023-03-23T09:07:22;15.20;90.00
17066;DHT22;23120;52.336;21.182;2023-03-23T09:09:51;15.20;89.00
17066;DHT22;23120;52.336;21.182;2023-03-23T09:12:20;15.30;89.20
17066;DHT22;23120;52.336;21.182;2023-03-23T09:14:48;15.20;87.90
17066;DHT22;23120;52.336;21.182;2023-03-23T09:17:15;15.20;87.70
17066;DHT22;23120;52.336;21.182;2023-03-23T09:19:42;15.10;89.40
17066;DHT22;23120;52.336;21.182;2023-03-23T09:22:11;15.10;88.00
17066;DHT22;23120;52.336;21.182;2023-03-23T09:24:41;15.00;89.60
17066;DHT22;23120;52.336;21.182;2023-03-23T09:27:19;15.00;87.80
17066;DHT22;23120;52.336;21.182;2023-03-23T09:29:56;15.00;88.50
17066;DHT22;23120;52.336;21.182;2023-03-23T09:32:24;15.00;87.20
17066;DHT22;23120;52.336;21.182;2023-03-23T09:34:51;15.00;87.20
17066;DHT22;23120;52.336;21.182;2023-03-23T09:37:20;15.00;89.30
17066;DHT22;23120;52.336;21.182;2023-03-23T09:39:47;15.00;88.60
17066;DHT22;23120;52.336;21.182;2023-03-23T09:42:41;15.00;88.00
17066;DHT22;23120;52.336;21.182;2023-03-23T09:45:18;15.10;86.90
17066;DHT22;23120;52.336;21.182;2023-03-23T09:48:03;15.00;88.50
17066;DHT22;23120;52.336;21.182;2023-03-23T09:50:33;15.10;87.40
17066;DHT22;23120;52.336;21.182;2023-03-23T09:53:09;15.20;86.90
17066;DHT22;23120;52.336;21.182;2023-03-23T09:55:37;15.20;87.40
17066;DHT22;23120;52.336;21.182;2023-03-23T09:58:12;15.20;86.00
17066;DHT22;23120;52.336;21.182;2023-03-23T10:00:47;15.30;86.60
17066;DHT22;23120;52.336;21.182;2023-03-23T10:03:17;15.40;86.40
17066;DHT22;23120;52.336;21.182;2023-03-23T10:05:45;15.40;86.90
17066;DHT22;23120;52.336;21.182;2023-03-23T10:08:15;15.50;85.10
17066;DHT22;23120;52.336;21.182;2023-03-23T10:10:49;15.50;84.50
17066;DHT22;23120;52.336;21.182;2023-03-23T10:13:28;15.60;85.30
17066;DHT22;23120;52.336;21.182;2023-03-23T10:16:01;15.80;81.50
17066;DHT22;23120;52.336;21.182;2023-03-23T10:18:36;15.90;79.60
17066;DHT22;23120;52.336;21.182;2023-03-23T10:21:03;16.00;79.70
17066;DHT22;23120;52.336;21.182;2023-03-23T10:23:44;16.10;79.70
17066;DHT22;23120;52.336;21.182;2023-03-23T10:26:22;16.30;78.30
17066;DHT22;23120;52.336;21.182;2023-03-23T10:28:57;16.30;79.10
17066;DHT22;23120;52.336;21.182;2023-03-23T10:31:30;16.60;75.00
17066;DHT22;23120;52.336;21.182;2023-03-23T10:34:03;16.70;75.60
17066;DHT22;23120;52.336;21.182;2023-03-23T10:36:35;16.80;76.00
17066;DHT22;23120;52.336;21.182;2023-03-23T10:39:08;17.00;76.20
17066;DHT22;23120;52.336;21.182;2023-03-23T10:41:37;17.20;73.30
17066;DHT22;23120;52.336;21.182;2023-03-23T10:44:10;17.40;69.00
17066;DHT22;23120;52.336;21.182;2023-03-23T10:46:44;17.80;69.70
17066;DHT22;23120;52.336;21.182;2023-03-23T10:49:25;18.00;67.90
17066;DHT22;23120;52.336;21.182;2023-03-23T10:51:59;18.20;67.80
17066;DHT22;23120;52.336;21.182;2023-03-23T10:54:33;18.30;65.80
17066;DHT22;23120;52.336;21.182;2023-03-23T10:57:12;18.30;65.70
17066;DHT22;23120;52.336;21.182;2023-03-23T10:59:41;18.40;65.40
17066;DHT22;23120;52.336;21.182;2023-03-23T11:02:14;18.40;66.10
17066;DHT22;23120;52.336;21.182;2023-03-23T11:04:46;18.40;64.70
17066;DHT22;23120;52.336;21.182;2023-03-23T11:07:20;18.40;65.40
17066;DHT22;23120;52.336;21.182;2023-03-23T11:09:52;18.40;64.80
17066;DHT22;23120;52.336;21.182;2023-03-23T11:12:20;18.50;64.00
17066;DHT22;23120;52.336;21.182;2023-03-23T11:14:50;18.40;60.50
17066;DHT22;23120;52.336;21.182;2023-03-23T11:17:24;18.40;59.90
17066;DHT22;23120;52.336;21.182;2023-03-23T11:19:52;18.50;59.90
17066;DHT22;23120;52.336;21.182;2023-03-23T11:22:24;18.50;60.60
17066;DHT22;23120;52.336;21.182;2023-03-23T11:25:12;18.50;59.80
17066;DHT22;23120;52.336;21.182;2023-03-23T11:27:40;18.50;59.60
17066;DHT22;23120;52.336;21.182;2023-03-23T11:30:15;18.50;58.30
17066;DHT22;23120;52.336;21.182;2023-03-23T11:32:49;18.50;59.00
17066;DHT22;23120;52.336;21.182;2023-03-23T11:35:20;18.50;59.20
17066;DHT22;23120;52.336;21.182;2023-03-23T11:37:50;18.50;58.30
17066;DHT22;23120;52.336;21.182;2023-03-23T11:40:19;18.50;59.00
17066;DHT22;23120;52.336;21.182;2023-03-23T11:42:55;18.60;59.80
17066;DHT22;23120;52.336;21.182;2023-03-23T11:45:31;18.70;59.50
17066;DHT22;23120;52.336;21.182;2023-03-23T11:48:07;18.70;58.80
17066;DHT22;23120;52.336;21.182;2023-03-23T11:50:47;18.90;56.70
17066;DHT22;23120;52.336;21.182;2023-03-23T11:53:22;18.90;56.50
17066;DHT22;23120;52.336;21.182;2023-03-23T11:56:04;19.00;56.30
17066;DHT22;23120;52.336;21.182;2023-03-23T11:58:33;19.10;55.80
17066;DHT22;23120;52.336;21.182;2023-03-23T12:01:06;19.10;55.40
17066;DHT22;23120;52.336;21.182;2023-03-23T12:03:53;19.20;54.70
17066;DHT22;23120;52.336;21.182;2023-03-23T12:06:30;19.20;53.80
17066;DHT22;23120;52.336;21.182;2023-03-23T12:09:05;19.30;54.00
17066;DHT22;23120;52.336;21.182;2023-03-23T12:11:50;19.30;54.60
17066;DHT22;23120;52.336;21.182;2023-03-23T12:14:24;19.40;55.80
17066;DHT22;23120;52.336;21.182;2023-03-23T12:17:06;19.50;55.80
17066;DHT22;23120;52.336;21.182;2023-03-23T12:19:42;19.60;55.10
17066;DHT22;23120;52.336;21.182;2023-03-23T12:22:23;19.70;55.50
17066;DHT22;23120;52.336;21.182;2023-03-23T12:25:01;19.90;55.70
17066;DHT22;23120;52.336;21.182;2023-03-23T12:27:37;20.00;54.00
17066;DHT22;23120;52.336;21.182;2023-03-23T12:30:20;20.00;52.60
17066;DHT22;23120;52.336;21.182;2023-03-23T12:33:02;20.10;53.10
17066;DHT22;23120;52.336;21.182;2023-03-23T12:35:40;20.10;54.20
17066;DHT22;23120;52.336;21.182;2023-03-23T12:38:18;20.10;52.80
17066;DHT22;23120;52.336;21.182;2023-03-23T12:41:12;20.20;53.10
17066;DHT22;23120;52.336;21.182;2023-03-23T12:43:51;20.20;52.30
17066;DHT22;23120;52.336;21.182;2023-03-23T12:49:13;20.20;52.80
17066;DHT22;23120;52.336;21.182;2023-03-23T12:51:49;20.30;52.70
17066;DHT22;23120;52.336;21.182;2023-03-23T12:54:23;20.40;52.40
17066;DHT22;23120;52.336;21.182;2023-03-23T12:56:56;20.30;52.60
17066;DHT22;23120;52.336;21.182;2023-03-23T12:59:32;20.40;52.70
17066;DHT22;23120;52.336;21.182;2023-03-23T13:04:40;20.40;51.10
17066;DHT22;23120;52.336;21.182;2023-03-23T13:07:14;20.40;52.90
17066;DHT22;23120;52.336;21.182;2023-03-23T13:09:48;20.30;52.30
17066;DHT22;23120;52.336;21.182;2023-03-23T13:12:17;20.30;52.80
17066;DHT22;23120;52.336;21.182;2023-03-23T13:14:52;20.30;51.90
17066;DHT22;23120;52.336;21.182;2023-03-23T13:17:28;20.30;52.80
17066;DHT22;23120;52.336;21.182;2023-03-23T13:20:13;20.20;52.70
17066;DHT22;23120;52.336;21.182;2023-03-23T13:22:45;20.20;53.10
17066;DHT22;23120;52.336;21.182;2023-03-23T13:25:19;20.10;53.50
17066;DHT22;23120;52.336;21.182;2023-03-23T13:27:58;20.10;53.90
17066;DHT22;23120;52.336;21.182;2023-03-23T13:30:27;20.00;53.60
17066;DHT22;23120;52.336;21.182;2023-03-23T13:33:02;19.90;54.30
17066;DHT22;23120;52.336;21.182;2023-03-23T13:35:36;19.80;53.60
17066;DHT22;23120;52.336;21.182;2023-03-23T13:38:13;19.80;53.50
17066;DHT22;23120;52.336;21.182;2023-03-23T13:40:44;19.70;54.20
17066;DHT22;23120;52.336;21.182;2023-03-23T13:43:12;19.60;53.60
17066;DHT22;23120;52.336;21.182;2023-03-23T13:45:47;19.50;54.70
17066;DHT22;23120;52.336;21.182;2023-03-23T13:48:20;19.40;54.20
17066;DHT22;23120;52.336;21.182;2023-03-23T13:50:54;19.30;55.00
17066;DHT22;23120;52.336;21.182;2023-03-23T13:53:25;19.20;55.10
17066;DHT22;23120;52.336;21.182;2023-03-23T13:56:07;19.10;54.60
17066;DHT22;23120;52.336;21.182;2023-03-23T13:58:47;19.10;54.70
17066;DHT22;23120;52.336;21.182;2023-03-23T14:01:32;19.00;55.20
17066;DHT22;23120;52.336;21.182;2023-03-23T14:04:04;19.00;55.60
17066;DHT22;23120;52.336;21.182;2023-03-23T14:06:35;18.90;55.60
17066;DHT22;23120;52.336;21.182;2023-03-23T14:09:15;18.80;55.50
17066;DHT22;23120;52.336;21.182;2023-03-23T14:11:49;18.70;55.60
17066;DHT22;23120;52.336;21.182;2023-03-23T14:14:23;18.60;55.60
17066;DHT22;23120;52.336;21.182;2023-03-23T14:16:51;18.60;56.00
17066;DHT22;23120;52.336;21.182;2023-03-23T14:19:21;18.50;56.00
17066;DHT22;23120;52.336;21.182;2023-03-23T14:21:53;18.40;55.90
17066;DHT22;23120;52.336;21.182;2023-03-23T14:24:22;18.30;56.40
17066;DHT22;23120;52.336;21.182;2023-03-23T14:26:51;18.30;56.80
17066;DHT22;23120;52.336;21.182;2023-03-23T14:29:20;18.30;56.40
17066;DHT22;23120;52.336;21.182;2023-03-23T14:31:53;18.20;56.90
17066;DHT22;23120;52.336;21.182;2023-03-23T14:34:23;18.10;56.80
17066;DHT22;23120;52.336;21.182;2023-03-23T14:36:54;18.10;57.60
17066;DHT22;23120;52.336;21.182;2023-03-23T14:39:24;18.00;56.90
17066;DHT22;23120;52.336;21.182;2023-03-23T14:41:53;17.90;57.20
17066;DHT22;23120;52.336;21.182;2023-03-23T14:44:24;17.90;57.90
17066;DHT22;23120;52.336;21.182;2023-03-23T14:46:52;17.80;58.00
17066;DHT22;23120;52.336;21.182;2023-03-23T14:49:26;17.80;58.20
17066;DHT22;23120;52.336;21.182;2023-03-23T14:51:56;17.60;58.00
17066;DHT22;23120;52.336;21.182;2023-03-23T14:54:25;17.60;59.00
17066;DHT22;23120;52.336;21.182;2023-03-23T14:56:53;17.60;59.00
17066;DHT22;23120;52.336;21.182;2023-03-23T14:59:20;17.50;58.90
17066;DHT22;23120;52.336;21.182;2023-03-23T15:01:49;17.50;59.50
17066;DHT22;23120;52.336;21.182;2023-03-23T15:04:19;17.40;58.80
17066;DHT22;23120;52.336;21.182;2023-03-23T15:06:48;17.40;59.20
17066;DHT22;23120;52.336;21.182;2023-03-23T15:09:20;17.30;59.80
17066;DHT22;23120;52.336;21.182;2023-03-23T15:11:54;17.20;59.70
17066;DHT22;23120;52.336;21.182;2023-03-23T15:14:24;17.20;60.10
17066;DHT22;23120;52.336;21.182;2023-03-23T15:16:53;17.20;60.40
17066;DHT22;23120;52.336;21.182;2023-03-23T15:19:24;17.10;60.50
17066;DHT22;23120;52.336;21.182;2023-03-23T15:21:53;17.10;61.10
17066;DHT22;23120;52.336;21.182;2023-03-23T15:24:27;17.00;60.80
17066;DHT22;23120;52.336;21.182;2023-03-23T15:27:03;16.90;61.20
17066;DHT22;23120;52.336;21.182;2023-03-23T15:29:33;16.90;61.90
17066;DHT22;23120;52.336;21.182;2023-03-23T15:32:00;16.90;61.90
17066;DHT22;23120;52.336;21.182;2023-03-23T15:34:31;16.80;61.80
17066;DHT22;23120;52.336;21.182;2023-03-23T15:37:02;16.90;62.40
17066;DHT22;23120;52.336;21.182;2023-03-23T15:39:32;16.80;62.40
17066;DHT22;23120;52.336;21.182;2023-03-23T15:42:00;16.80;62.60
17066;DHT22;23120;52.336;21.182;2023-03-23T15:44:30;16.80;62.70
17066;DHT22;23120;52.336;21.182;2023-03-23T15:47:04;16.80;63.00
17066;DHT22;23120;52.336;21.182;2023-03-23T15:49:37;16.80;63.00
17066;DHT22;23120;52.336;21.182;2023-03-23T15:52:06;16.70;62.90
17066;DHT22;23120;52.336;21.182;2023-03-23T15:54:35;16.70;62.60
17066;DHT22;23120;52.336;21.182;2023-03-23T15:57:02;16.60;62.80
17066;DHT22;23120;52.336;21.182;2023-03-23T15:59:29;16.50;63.00
17066;DHT22;23120;52.336;21.182;2023-03-23T16:01:56;16.50;63.40
17066;DHT22;23120;52.336;21.182;2023-03-23T16:04:23;16.50;63.40
17066;DHT22;23120;52.336;21.182;2023-03-23T16:06:51;16.50;63.70
17066;DHT22;23120;52.336;21.182;2023-03-23T16:09:19;16.50;63.70
17066;DHT22;23120;52.336;21.182;2023-03-23T16:11:55;16.50;63.90
17066;DHT22;23120;52.336;21.182;2023-03-23T16:14:22;16.40;63.90
17066;DHT22;23120;52.336;21.182;2023-03-23T16:16:49;16.40;63.70
17066;DHT22;23120;52.336;21.182;2023-03-23T16:19:17;16.40;63.80
17066;DHT22;23120;52.336;21.182;2023-03-23T16:21:46;16.40;64.10
17066;DHT22;23120;52.336;21.182;2023-03-23T16:24:13;16.30;64.50